METAR Data
IDs: Format: Raw Decoded Include TAF

Data at: 1316 UTC 24 Jan 2021

KLWB 241255Z AUTO 03003KT 10SM OVC085 M06/M10 A3020 RMK AO2 T10641101